sensor_id;sensor_type;location;lat;lon;timestamp;P1;durP1;ratioP1;P2;durP2;ratioP2
78581;SDS011;67878;46.242;5.974;2023-03-24T00:01:53;4.03;;;3.22;;
78581;SDS011;67878;46.242;5.974;2023-03-24T00:04:20;3.30;;;2.90;;
78581;SDS011;67878;46.242;5.974;2023-03-24T00:06:46;3.78;;;3.17;;
78581;SDS011;67878;46.242;5.974;2023-03-24T00:09:13;3.40;;;3.10;;
78581;SDS011;67878;46.242;5.974;2023-03-24T00:11:39;4.72;;;3.25;;
78581;SDS011;67878;46.242;5.974;2023-03-24T00:14:05;3.63;;;3.00;;
78581;SDS011;67878;46.242;5.974;2023-03-24T00:16:30;3.88;;;3.30;;
78581;SDS011;67878;46.242;5.974;2023-03-24T00:18:59;4.45;;;3.30;;
78581;SDS011;67878;46.242;5.974;2023-03-24T00:21:24;4.03;;;3.08;;
78581;SDS011;67878;46.242;5.974;2023-03-24T00:23:51;4.95;;;2.90;;
78581;SDS011;67878;46.242;5.974;2023-03-24T00:26:18;3.63;;;3.33;;
78581;SDS011;67878;46.242;5.974;2023-03-24T00:28:45;4.20;;;3.22;;
78581;SDS011;67878;46.242;5.974;2023-03-24T00:31:12;4.15;;;3.10;;
78581;SDS011;67878;46.242;5.974;2023-03-24T00:33:41;4.13;;;3.08;;
78581;SDS011;67878;46.242;5.974;2023-03-24T00:36:09;3.42;;;2.97;;
78581;SDS011;67878;46.242;5.974;2023-03-24T00:38:38;3.88;;;3.08;;
78581;SDS011;67878;46.242;5.974;2023-03-24T00:41:08;3.63;;;3.20;;
78581;SDS011;67878;46.242;5.974;2023-03-24T00:43:37;5.93;;;3.50;;
78581;SDS011;67878;46.242;5.974;2023-03-24T00:46:05;4.30;;;2.95;;
78581;SDS011;67878;46.242;5.974;2023-03-24T00:48:32;3.20;;;2.90;;
78581;SDS011;67878;46.242;5.974;2023-03-24T00:51:00;4.93;;;3.40;;
78581;SDS011;67878;46.242;5.974;2023-03-24T00:53:26;3.28;;;2.90;;
78581;SDS011;67878;46.242;5.974;2023-03-24T00:55:53;5.22;;;3.10;;
78581;SDS011;67878;46.242;5.974;2023-03-24T00:58:19;4.10;;;3.67;;
78581;SDS011;67878;46.242;5.974;2023-03-24T01:00:49;3.50;;;3.05;;
78581;SDS011;67878;46.242;5.974;2023-03-24T01:05:41;4.55;;;3.35;;
78581;SDS011;67878;46.242;5.974;2023-03-24T01:08:12;3.75;;;3.00;;
78581;SDS011;67878;46.242;5.974;2023-03-24T01:10:38;4.32;;;3.03;;
78581;SDS011;67878;46.242;5.974;2023-03-24T01:13:14;4.47;;;3.13;;
78581;SDS011;67878;46.242;5.974;2023-03-24T01:15:41;3.38;;;3.17;;
78581;SDS011;67878;46.242;5.974;2023-03-24T01:18:07;4.78;;;3.50;;
78581;SDS011;67878;46.242;5.974;2023-03-24T01:20:34;3.50;;;3.17;;
78581;SDS011;67878;46.242;5.974;2023-03-24T01:23:00;3.53;;;3.22;;
78581;SDS011;67878;46.242;5.974;2023-03-24T01:25:29;4.18;;;3.15;;
78581;SDS011;67878;46.242;5.974;2023-03-24T01:27:54;4.20;;;3.22;;
78581;SDS011;67878;46.242;5.974;2023-03-24T01:30:21;3.40;;;3.03;;
78581;SDS011;67878;46.242;5.974;2023-03-24T01:32:51;3.58;;;3.28;;
78581;SDS011;67878;46.242;5.974;2023-03-24T01:35:17;3.60;;;3.30;;
78581;SDS011;67878;46.242;5.974;2023-03-24T01:37:43;3.60;;;2.85;;
78581;SDS011;67878;46.242;5.974;2023-03-24T01:40:10;3.42;;;3.13;;
78581;SDS011;67878;46.242;5.974;2023-03-24T01:42:41;3.95;;;3.22;;
78581;SDS011;67878;46.242;5.974;2023-03-24T01:48:04;3.85;;;3.13;;
78581;SDS011;67878;46.242;5.974;2023-03-24T01:50:31;3.28;;;2.85;;
78581;SDS011;67878;46.242;5.974;2023-03-24T01:52:56;5.32;;;3.28;;
78581;SDS011;67878;46.242;5.974;2023-03-24T01:55:23;3.50;;;2.92;;
78581;SDS011;67878;46.242;5.974;2023-03-24T01:57:52;4.00;;;3.15;;
78581;SDS011;67878;46.242;5.974;2023-03-24T02:00:20;4.00;;;2.97;;
78581;SDS011;67878;46.242;5.974;2023-03-24T02:02:49;3.95;;;3.22;;
78581;SDS011;67878;46.242;5.974;2023-03-24T02:05:20;4.68;;;3.28;;
78581;SDS011;67878;46.242;5.974;2023-03-24T02:10:30;3.33;;;3.03;;
78581;SDS011;67878;46.242;5.974;2023-03-24T02:12:58;3.42;;;3.13;;
78581;SDS011;67878;46.242;5.974;2023-03-24T02:15:27;3.95;;;3.30;;
78581;SDS011;67878;46.242;5.974;2023-03-24T02:18:12;3.58;;;2.55;;
78581;SDS011;67878;46.242;5.974;2023-03-24T02:40:02;3.42;;;2.80;;
78581;SDS011;67878;46.242;5.974;2023-03-24T02:45:34;3.30;;;3.00;;
78581;SDS011;67878;46.242;5.974;2023-03-24T02:56:43;3.83;;;3.03;;
78581;SDS011;67878;46.242;5.974;2023-03-24T02:59:16;3.38;;;3.00;;
78581;SDS011;67878;46.242;5.974;2023-03-24T03:04:21;3.10;;;2.80;;
78581;SDS011;67878;46.242;5.974;2023-03-24T03:06:55;3.90;;;2.80;;
78581;SDS011;67878;46.242;5.974;2023-03-24T03:09:25;3.40;;;3.10;;
78581;SDS011;67878;46.242;5.974;2023-03-24T03:11:55;3.38;;;3.13;;
78581;SDS011;67878;46.242;5.974;2023-03-24T03:14:26;4.00;;;3.15;;
78581;SDS011;67878;46.242;5.974;2023-03-24T03:17:02;3.78;;;2.95;;
78581;SDS011;67878;46.242;5.974;2023-03-24T03:19:40;3.35;;;2.95;;
78581;SDS011;67878;46.242;5.974;2023-03-24T03:22:32;4.25;;;3.03;;
78581;SDS011;67878;46.242;5.974;2023-03-24T03:25:14;3.13;;;2.83;;
78581;SDS011;67878;46.242;5.974;2023-03-24T03:27:41;3.72;;;3.05;;
78581;SDS011;67878;46.242;5.974;2023-03-24T03:30:15;3.67;;;2.88;;
78581;SDS011;67878;46.242;5.974;2023-03-24T03:32:47;3.50;;;3.20;;
78581;SDS011;67878;46.242;5.974;2023-03-24T03:35:34;3.55;;;3.25;;
78581;SDS011;67878;46.242;5.974;2023-03-24T03:40:52;3.20;;;2.90;;
78581;SDS011;67878;46.242;5.974;2023-03-24T03:43:26;3.33;;;2.92;;
78581;SDS011;67878;46.242;5.974;2023-03-24T03:45:53;3.17;;;2.88;;
78581;SDS011;67878;46.242;5.974;2023-03-24T03:48:20;4.00;;;2.78;;
78581;SDS011;67878;46.242;5.974;2023-03-24T03:50:46;4.25;;;3.13;;
78581;SDS011;67878;46.242;5.974;2023-03-24T03:53:13;3.75;;;2.90;;
78581;SDS011;67878;46.242;5.974;2023-03-24T03:55:42;3.20;;;2.85;;
78581;SDS011;67878;46.242;5.974;2023-03-24T03:58:08;3.70;;;2.92;;
78581;SDS011;67878;46.242;5.974;2023-03-24T04:00:35;3.00;;;2.70;;
78581;SDS011;67878;46.242;5.974;2023-03-24T04:05:36;4.15;;;2.78;;
78581;SDS011;67878;46.242;5.974;2023-03-24T04:26:54;3.45;;;2.92;;
78581;SDS011;67878;46.242;5.974;2023-03-24T04:32:12;3.70;;;2.90;;
78581;SDS011;67878;46.242;5.974;2023-03-24T04:34:43;3.10;;;2.80;;
78581;SDS011;67878;46.242;5.974;2023-03-24T04:37:16;2.90;;;2.70;;
78581;SDS011;67878;46.242;5.974;2023-03-24T04:39:44;3.03;;;2.75;;
78581;SDS011;67878;46.242;5.974;2023-03-24T04:42:53;3.15;;;2.85;;
78581;SDS011;67878;46.242;5.974;2023-03-24T04:45:09;2.97;;;2.78;;
78581;SDS011;67878;46.242;5.974;2023-03-24T04:47:41;3.33;;;3.05;;
78581;SDS011;67878;46.242;5.974;2023-03-24T04:52:36;3.30;;;3.00;;
78581;SDS011;67878;46.242;5.974;2023-03-24T04:57:51;2.97;;;2.67;;
78581;SDS011;67878;46.242;5.974;2023-03-24T05:00:17;2.72;;;2.53;;
78581;SDS011;67878;46.242;5.974;2023-03-24T05:02:43;3.10;;;2.80;;
78581;SDS011;67878;46.242;5.974;2023-03-24T05:05:10;2.72;;;2.53;;
78581;SDS011;67878;46.242;5.974;2023-03-24T05:07:36;3.08;;;2.83;;
78581;SDS011;67878;46.242;5.974;2023-03-24T05:10:01;3.00;;;2.80;;
78581;SDS011;67878;46.242;5.974;2023-03-24T05:12:28;2.78;;;2.58;;
78581;SDS011;67878;46.242;5.974;2023-03-24T05:14:56;3.10;;;2.80;;
78581;SDS011;67878;46.242;5.974;2023-03-24T05:17:22;2.85;;;2.60;;
78581;SDS011;67878;46.242;5.974;2023-03-24T05:19:47;2.67;;;2.42;;
78581;SDS011;67878;46.242;5.974;2023-03-24T05:22:12;3.00;;;2.60;;
78581;SDS011;67878;46.242;5.974;2023-03-24T05:24:38;2.78;;;2.58;;
78581;SDS011;67878;46.242;5.974;2023-03-24T05:27:04;3.15;;;2.60;;
78581;SDS011;67878;46.242;5.974;2023-03-24T05:29:30;3.42;;;2.65;;
78581;SDS011;67878;46.242;5.974;2023-03-24T05:31:55;3.20;;;2.95;;
78581;SDS011;67878;46.242;5.974;2023-03-24T05:34:20;3.28;;;2.45;;
78581;SDS011;67878;46.242;5.974;2023-03-24T05:36:46;4.20;;;2.58;;
78581;SDS011;67878;46.242;5.974;2023-03-24T05:39:12;2.50;;;2.30;;
78581;SDS011;67878;46.242;5.974;2023-03-24T05:41:37;2.83;;;2.60;;
78581;SDS011;67878;46.242;5.974;2023-03-24T05:44:02;3.08;;;2.65;;
78581;SDS011;67878;46.242;5.974;2023-03-24T05:46:28;2.60;;;2.40;;
78581;SDS011;67878;46.242;5.974;2023-03-24T05:48:54;2.70;;;2.50;;
78581;SDS011;67878;46.242;5.974;2023-03-24T05:51:28;2.95;;;2.63;;
78581;SDS011;67878;46.242;5.974;2023-03-24T05:53:59;3.15;;;2.35;;
78581;SDS011;67878;46.242;5.974;2023-03-24T05:56:30;2.83;;;2.60;;
78581;SDS011;67878;46.242;5.974;2023-03-24T05:58:57;2.47;;;2.28;;
78581;SDS011;67878;46.242;5.974;2023-03-24T06:01:25;2.40;;;2.20;;
78581;SDS011;67878;46.242;5.974;2023-03-24T06:03:57;3.10;;;2.80;;
78581;SDS011;67878;46.242;5.974;2023-03-24T06:06:27;2.65;;;2.33;;
78581;SDS011;67878;46.242;5.974;2023-03-24T06:08:56;3.17;;;2.80;;
78581;SDS011;67878;46.242;5.974;2023-03-24T06:11:25;2.85;;;2.58;;
78581;SDS011;67878;46.242;5.974;2023-03-24T06:13:51;2.78;;;2.58;;
78581;SDS011;67878;46.242;5.974;2023-03-24T06:16:16;2.60;;;2.40;;
78581;SDS011;67878;46.242;5.974;2023-03-24T06:18:43;2.22;;;2.00;;
78581;SDS011;67878;46.242;5.974;2023-03-24T06:21:16;2.75;;;2.42;;
78581;SDS011;67878;46.242;5.974;2023-03-24T06:23:42;2.60;;;2.40;;
78581;SDS011;67878;46.242;5.974;2023-03-24T06:26:09;2.72;;;2.45;;
78581;SDS011;67878;46.242;5.974;2023-03-24T06:28:38;2.67;;;2.38;;
78581;SDS011;67878;46.242;5.974;2023-03-24T06:31:09;2.80;;;2.58;;
78581;SDS011;67878;46.242;5.974;2023-03-24T06:33:40;3.08;;;2.20;;
78581;SDS011;67878;46.242;5.974;2023-03-24T06:36:12;2.03;;;1.92;;
78581;SDS011;67878;46.242;5.974;2023-03-24T06:38:40;2.80;;;2.60;;
78581;SDS011;67878;46.242;5.974;2023-03-24T06:41:09;2.78;;;2.58;;
78581;SDS011;67878;46.242;5.974;2023-03-24T06:43:34;2.58;;;2.38;;
78581;SDS011;67878;46.242;5.974;2023-03-24T06:46:00;2.90;;;2.30;;
78581;SDS011;67878;46.242;5.974;2023-03-24T06:48:25;2.63;;;2.42;;
78581;SDS011;67878;46.242;5.974;2023-03-24T06:50:52;2.55;;;2.35;;
78581;SDS011;67878;46.242;5.974;2023-03-24T06:53:19;2.88;;;2.22;;
78581;SDS011;67878;46.242;5.974;2023-03-24T06:55:48;2.92;;;2.22;;
78581;SDS011;67878;46.242;5.974;2023-03-24T06:58:14;3.92;;;2.40;;
78581;SDS011;67878;46.242;5.974;2023-03-24T07:00:40;2.88;;;2.10;;
78581;SDS011;67878;46.242;5.974;2023-03-24T07:03:06;2.53;;;2.33;;
78581;SDS011;67878;46.242;5.974;2023-03-24T07:05:32;6.25;;;2.33;;
78581;SDS011;67878;46.242;5.974;2023-03-24T07:08:02;2.67;;;2.47;;
78581;SDS011;67878;46.242;5.974;2023-03-24T07:10:28;3.35;;;2.33;;
78581;SDS011;67878;46.242;5.974;2023-03-24T07:12:53;4.32;;;2.33;;
78581;SDS011;67878;46.242;5.974;2023-03-24T07:15:19;3.60;;;2.30;;
78581;SDS011;67878;46.242;5.974;2023-03-24T07:17:45;3.80;;;2.10;;
78581;SDS011;67878;46.242;5.974;2023-03-24T07:20:10;4.57;;;2.67;;
78581;SDS011;67878;46.242;5.974;2023-03-24T07:22:36;12.77;;;2.78;;
78581;SDS011;67878;46.242;5.974;2023-03-24T07:25:02;4.50;;;2.78;;
78581;SDS011;67878;46.242;5.974;2023-03-24T07:27:31;7.40;;;2.58;;
78581;SDS011;67878;46.242;5.974;2023-03-24T07:29:58;5.15;;;2.35;;
78581;SDS011;67878;46.242;5.974;2023-03-24T07:32:24;4.25;;;2.60;;
78581;SDS011;67878;46.242;5.974;2023-03-24T07:34:52;5.35;;;2.78;;
78581;SDS011;67878;46.242;5.974;2023-03-24T07:37:18;5.28;;;2.30;;
78581;SDS011;67878;46.242;5.974;2023-03-24T07:39:43;4.15;;;2.20;;
78581;SDS011;67878;46.242;5.974;2023-03-24T07:42:10;6.57;;;2.45;;
78581;SDS011;67878;46.242;5.974;2023-03-24T07:44:39;3.70;;;2.53;;
78581;SDS011;67878;46.242;5.974;2023-03-24T07:47:04;3.70;;;2.40;;
78581;SDS011;67878;46.242;5.974;2023-03-24T07:49:31;2.97;;;2.45;;
78581;SDS011;67878;46.242;5.974;2023-03-24T07:51:59;2.97;;;2.67;;
78581;SDS011;67878;46.242;5.974;2023-03-24T07:54:27;3.60;;;2.35;;
78581;SDS011;67878;46.242;5.974;2023-03-24T07:56:56;3.22;;;2.40;;
78581;SDS011;67878;46.242;5.974;2023-03-24T07:59:22;4.65;;;2.60;;
78581;SDS011;67878;46.242;5.974;2023-03-24T08:01:48;2.72;;;2.13;;
78581;SDS011;67878;46.242;5.974;2023-03-24T08:04:18;3.08;;;2.22;;
78581;SDS011;67878;46.242;5.974;2023-03-24T08:06:45;3.70;;;2.17;;
78581;SDS011;67878;46.242;5.974;2023-03-24T08:09:11;2.72;;;2.20;;
78581;SDS011;67878;46.242;5.974;2023-03-24T08:11:38;3.53;;;2.72;;
78581;SDS011;67878;46.242;5.974;2023-03-24T08:14:04;3.05;;;2.20;;
78581;SDS011;67878;46.242;5.974;2023-03-24T08:16:33;2.42;;;2.00;;
78581;SDS011;67878;46.242;5.974;2023-03-24T08:19:02;4.00;;;2.33;;
78581;SDS011;67878;46.242;5.974;2023-03-24T08:21:29;2.58;;;1.98;;
78581;SDS011;67878;46.242;5.974;2023-03-24T08:23:55;3.13;;;2.17;;
78581;SDS011;67878;46.242;5.974;2023-03-24T08:26:21;2.92;;;2.22;;
78581;SDS011;67878;46.242;5.974;2023-03-24T08:28:52;3.03;;;2.30;;
78581;SDS011;67878;46.242;5.974;2023-03-24T08:31:20;3.95;;;2.30;;
78581;SDS011;67878;46.242;5.974;2023-03-24T08:33:46;3.88;;;2.17;;
78581;SDS011;67878;46.242;5.974;2023-03-24T08:36:11;2.50;;;2.30;;
78581;SDS011;67878;46.242;5.974;2023-03-24T08:38:37;4.32;;;2.40;;
78581;SDS011;67878;46.242;5.974;2023-03-24T08:41:04;2.55;;;2.10;;
78581;SDS011;67878;46.242;5.974;2023-03-24T08:43:32;3.55;;;2.45;;
78581;SDS011;67878;46.242;5.974;2023-03-24T08:45:59;2.80;;;2.30;;
78581;SDS011;67878;46.242;5.974;2023-03-24T08:48:27;2.22;;;1.90;;
78581;SDS011;67878;46.242;5.974;2023-03-24T08:50:54;2.85;;;2.00;;
78581;SDS011;67878;46.242;5.974;2023-03-24T08:53:20;2.30;;;1.80;;
78581;SDS011;67878;46.242;5.974;2023-03-24T08:55:45;2.90;;;2.17;;
78581;SDS011;67878;46.242;5.974;2023-03-24T08:58:13;2.65;;;1.92;;
78581;SDS011;67878;46.242;5.974;2023-03-24T09:00:44;2.83;;;2.00;;
78581;SDS011;67878;46.242;5.974;2023-03-24T09:03:15;2.63;;;2.42;;
78581;SDS011;67878;46.242;5.974;2023-03-24T09:05:45;3.53;;;1.83;;
78581;SDS011;67878;46.242;5.974;2023-03-24T09:08:12;3.20;;;1.92;;
78581;SDS011;67878;46.242;5.974;2023-03-24T09:10:39;2.92;;;2.00;;
78581;SDS011;67878;46.242;5.974;2023-03-24T09:13:07;2.67;;;2.25;;
78581;SDS011;67878;46.242;5.974;2023-03-24T09:15:33;2.17;;;1.92;;
78581;SDS011;67878;46.242;5.974;2023-03-24T09:17:59;2.85;;;2.00;;
78581;SDS011;67878;46.242;5.974;2023-03-24T09:20:25;2.38;;;2.17;;
78581;SDS011;67878;46.242;5.974;2023-03-24T09:22:51;2.13;;;1.92;;
78581;SDS011;67878;46.242;5.974;2023-03-24T09:25:21;2.53;;;1.98;;
78581;SDS011;67878;46.242;5.974;2023-03-24T09:27:49;3.30;;;2.22;;
78581;SDS011;67878;46.242;5.974;2023-03-24T09:30:16;2.38;;;2.15;;
78581;SDS011;67878;46.242;5.974;2023-03-24T09:32:43;2.20;;;2.00;;
78581;SDS011;67878;46.242;5.974;2023-03-24T09:35:09;3.17;;;1.83;;
78581;SDS011;67878;46.242;5.974;2023-03-24T09:37:35;2.28;;;1.98;;
78581;SDS011;67878;46.242;5.974;2023-03-24T09:40:02;2.30;;;2.08;;
78581;SDS011;67878;46.242;5.974;2023-03-24T09:42:39;2.10;;;1.90;;
78581;SDS011;67878;46.242;5.974;2023-03-24T09:45:11;2.15;;;1.85;;
78581;SDS011;67878;46.242;5.974;2023-03-24T09:52:59;1.88;;;1.73;;
78581;SDS011;67878;46.242;5.974;2023-03-24T09:55:29;2.63;;;1.92;;
78581;SDS011;67878;46.242;5.974;2023-03-24T09:57:56;2.20;;;1.77;;
78581;SDS011;67878;46.242;5.974;2023-03-24T10:00:26;2.33;;;1.70;;
78581;SDS011;67878;46.242;5.974;2023-03-24T10:02:53;2.80;;;2.08;;
78581;SDS011;67878;46.242;5.974;2023-03-24T10:08:03;2.28;;;1.70;;
78581;SDS011;67878;46.242;5.974;2023-03-24T10:10:42;1.85;;;1.75;;
78581;SDS011;67878;46.242;5.974;2023-03-24T10:13:29;1.77;;;1.58;;
78581;SDS011;67878;46.242;5.974;2023-03-24T10:19:22;2.47;;;1.70;;
78581;SDS011;67878;46.242;5.974;2023-03-24T10:22:10;1.75;;;1.65;;
78581;SDS011;67878;46.242;5.974;2023-03-24T10:27:27;2.20;;;1.70;;
78581;SDS011;67878;46.242;5.974;2023-03-24T10:30:03;2.03;;;1.80;;
78581;SDS011;67878;46.242;5.974;2023-03-24T10:32:39;2.15;;;1.50;;
78581;SDS011;67878;46.242;5.974;2023-03-24T10:35:23;1.80;;;1.60;;
78581;SDS011;67878;46.242;5.974;2023-03-24T10:37:56;1.83;;;1.70;;
78581;SDS011;67878;46.242;5.974;2023-03-24T10:40:25;1.70;;;1.60;;
78581;SDS011;67878;46.242;5.974;2023-03-24T10:42:58;1.98;;;1.73;;
78581;SDS011;67878;46.242;5.974;2023-03-24T10:45:38;2.75;;;1.60;;
78581;SDS011;67878;46.242;5.974;2023-03-24T10:48:06;3.00;;;1.70;;
78581;SDS011;67878;46.242;5.974;2023-03-24T10:50:42;1.92;;;1.83;;
78581;SDS011;67878;46.242;5.974;2023-03-24T10:53:18;2.05;;;1.63;;
78581;SDS011;67878;46.242;5.974;2023-03-24T10:55:47;1.80;;;1.50;;
78581;SDS011;67878;46.242;5.974;2023-03-24T10:58:20;2.03;;;1.88;;
78581;SDS011;67878;46.242;5.974;2023-03-24T11:01:00;1.92;;;1.70;;
78581;SDS011;67878;46.242;5.974;2023-03-24T11:03:29;2.88;;;1.92;;
78581;SDS011;67878;46.242;5.974;2023-03-24T11:06:02;2.20;;;1.98;;
78581;SDS011;67878;46.242;5.974;2023-03-24T11:08:37;2.70;;;1.67;;
78581;SDS011;67878;46.242;5.974;2023-03-24T11:13:54;1.67;;;1.58;;
78581;SDS011;67878;46.242;5.974;2023-03-24T11:16:26;2.30;;;1.85;;
78581;SDS011;67878;46.242;5.974;2023-03-24T11:21:36;2.70;;;1.90;;
78581;SDS011;67878;46.242;5.974;2023-03-24T11:24:02;2.03;;;1.70;;
78581;SDS011;67878;46.242;5.974;2023-03-24T11:26:34;2.10;;;1.90;;
78581;SDS011;67878;46.242;5.974;2023-03-24T11:29:02;1.88;;;1.70;;
78581;SDS011;67878;46.242;5.974;2023-03-24T11:31:34;1.60;;;1.50;;
78581;SDS011;67878;46.242;5.974;2023-03-24T11:36:48;2.42;;;1.88;;
78581;SDS011;67878;46.242;5.974;2023-03-24T11:39:25;3.63;;;1.80;;
78581;SDS011;67878;46.242;5.974;2023-03-24T11:42:11;2.60;;;1.80;;
78581;SDS011;67878;46.242;5.974;2023-03-24T11:44:46;2.28;;;1.55;;
78581;SDS011;67878;46.242;5.974;2023-03-24T11:49:53;3.53;;;1.70;;
78581;SDS011;67878;46.242;5.974;2023-03-24T11:52:52;2.58;;;1.90;;
78581;SDS011;67878;46.242;5.974;2023-03-24T11:55:32;1.73;;;1.55;;
78581;SDS011;67878;46.242;5.974;2023-03-24T12:06:59;3.47;;;2.00;;
78581;SDS011;67878;46.242;5.974;2023-03-24T12:24:51;7.13;;;1.80;;
78581;SDS011;67878;46.242;5.974;2023-03-24T12:27:02;2.42;;;1.67;;
78581;SDS011;67878;46.242;5.974;2023-03-24T12:43:29;3.15;;;1.65;;
78581;SDS011;67878;46.242;5.974;2023-03-24T12:46:30;3.55;;;1.80;;
78581;SDS011;67878;46.242;5.974;2023-03-24T12:56:50;2.33;;;1.70;;
78581;SDS011;67878;46.242;5.974;2023-03-24T12:59:28;1.85;;;1.65;;
78581;SDS011;67878;46.242;5.974;2023-03-24T13:04:47;3.63;;;1.60;;
78581;SDS011;67878;46.242;5.974;2023-03-24T13:07:18;2.40;;;1.48;;
78581;SDS011;67878;46.242;5.974;2023-03-24T13:17:13;2.28;;;1.33;;
78581;SDS011;67878;46.242;5.974;2023-03-24T13:19:43;2.28;;;1.38;;
78581;SDS011;67878;46.242;5.974;2023-03-24T13:22:11;2.13;;;1.55;;
78581;SDS011;67878;46.242;5.974;2023-03-24T13:24:39;1.65;;;1.55;;
78581;SDS011;67878;46.242;5.974;2023-03-24T13:34:52;2.70;;;1.90;;
78581;SDS011;67878;46.242;5.974;2023-03-24T13:37:25;1.98;;;1.33;;
78581;SDS011;67878;46.242;5.974;2023-03-24T13:39:59;1.73;;;1.50;;
78581;SDS011;67878;46.242;5.974;2023-03-24T13:42:36;2.78;;;1.60;;
78581;SDS011;67878;46.242;5.974;2023-03-24T13:45:17;2.38;;;1.50;;
78581;SDS011;67878;46.242;5.974;2023-03-24T13:50:46;1.40;;;1.30;;
78581;SDS011;67878;46.242;5.974;2023-03-24T13:53:17;1.92;;;1.73;;
78581;SDS011;67878;46.242;5.974;2023-03-24T13:55:50;2.60;;;1.80;;
78581;SDS011;67878;46.242;5.974;2023-03-24T13:58:19;2.22;;;1.45;;
78581;SDS011;67878;46.242;5.974;2023-03-24T14:01:14;3.65;;;1.60;;
78581;SDS011;67878;46.242;5.974;2023-03-24T14:07:44;1.48;;;1.35;;
78581;SDS011;67878;46.242;5.974;2023-03-24T14:10:41;1.42;;;1.20;;
78581;SDS011;67878;46.242;5.974;2023-03-24T14:15:30;2.35;;;1.50;;
78581;SDS011;67878;46.242;5.974;2023-03-24T14:20:43;2.58;;;1.30;;
78581;SDS011;67878;46.242;5.974;2023-03-24T14:26:09;1.83;;;1.50;;
78581;SDS011;67878;46.242;5.974;2023-03-24T14:28:44;1.60;;;1.50;;
78581;SDS011;67878;46.242;5.974;2023-03-24T14:34:27;2.90;;;1.52;;
78581;SDS011;67878;46.242;5.974;2023-03-24T14:36:41;2.20;;;1.35;;
78581;SDS011;67878;46.242;5.974;2023-03-24T14:41:53;1.50;;;1.40;;
78581;SDS011;67878;46.242;5.974;2023-03-24T14:44:54;3.15;;;1.45;;
78581;SDS011;67878;46.242;5.974;2023-03-24T14:47:14;2.25;;;1.67;;
78581;SDS011;67878;46.242;5.974;2023-03-24T14:49:41;2.22;;;1.58;;
78581;SDS011;67878;46.242;5.974;2023-03-24T14:52:10;1.55;;;1.42;;
78581;SDS011;67878;46.242;5.974;2023-03-24T14:54:43;1.95;;;1.30;;
78581;SDS011;67878;46.242;5.974;2023-03-24T14:57:21;1.63;;;1.40;;
78581;SDS011;67878;46.242;5.974;2023-03-24T15:00:03;2.40;;;1.42;;
78581;SDS011;67878;46.242;5.974;2023-03-24T15:02:42;2.20;;;1.30;;
78581;SDS011;67878;46.242;5.974;2023-03-24T15:07:38;1.38;;;1.27;;
78581;SDS011;67878;46.242;5.974;2023-03-24T15:10:03;1.38;;;1.27;;
78581;SDS011;67878;46.242;5.974;2023-03-24T15:12:30;1.50;;;1.40;;
78581;SDS011;67878;46.242;5.974;2023-03-24T15:14:55;1.63;;;1.27;;
78581;SDS011;67878;46.242;5.974;2023-03-24T15:17:21;1.73;;;1.40;;
78581;SDS011;67878;46.242;5.974;2023-03-24T15:19:51;1.20;;;1.10;;
78581;SDS011;67878;46.242;5.974;2023-03-24T15:22:18;2.15;;;1.30;;
78581;SDS011;67878;46.242;5.974;2023-03-24T15:24:47;1.55;;;1.20;;
78581;SDS011;67878;46.242;5.974;2023-03-24T15:29:41;1.88;;;1.23;;
78581;SDS011;67878;46.242;5.974;2023-03-24T15:32:18;1.40;;;1.20;;
78581;SDS011;67878;46.242;5.974;2023-03-24T15:34:47;1.90;;;1.20;;
78581;SDS011;67878;46.242;5.974;2023-03-24T15:37:39;2.25;;;1.30;;
78581;SDS011;67878;46.242;5.974;2023-03-24T15:42:57;1.70;;;1.10;;
78581;SDS011;67878;46.242;5.974;2023-03-24T15:47:53;1.27;;;1.17;;
78581;SDS011;67878;46.242;5.974;2023-03-24T15:50:35;1.27;;;1.10;;
78581;SDS011;67878;46.242;5.974;2023-03-24T15:55:43;2.45;;;1.20;;
78581;SDS011;67878;46.242;5.974;2023-03-24T16:00:52;1.70;;;1.20;;
78581;SDS011;67878;46.242;5.974;2023-03-24T16:03:20;1.27;;;1.08;;
78581;SDS011;67878;46.242;5.974;2023-03-24T16:05:50;1.20;;;1.08;;
78581;SDS011;67878;46.242;5.974;2023-03-24T16:08:24;1.20;;;1.10;;
78581;SDS011;67878;46.242;5.974;2023-03-24T16:10:56;1.30;;;1.20;;
78581;SDS011;67878;46.242;5.974;2023-03-24T16:13:25;1.98;;;1.00;;
78581;SDS011;67878;46.242;5.974;2023-03-24T16:15:55;1.20;;;1.10;;
78581;SDS011;67878;46.242;5.974;2023-03-24T16:18:24;1.13;;;1.02;;
78581;SDS011;67878;46.242;5.974;2023-03-24T16:20:53;1.73;;;1.13;;
78581;SDS011;67878;46.242;5.974;2023-03-24T16:23:18;6.25;;;1.63;;
78581;SDS011;67878;46.242;5.974;2023-03-24T16:25:44;1.52;;;0.95;;
78581;SDS011;67878;46.242;5.974;2023-03-24T16:28:11;1.40;;;1.17;;
78581;SDS011;67878;46.242;5.974;2023-03-24T16:30:37;0.93;;;0.82;;
78581;SDS011;67878;46.242;5.974;2023-03-24T16:33:04;1.20;;;1.10;;
78581;SDS011;67878;46.242;5.974;2023-03-24T16:35:31;1.55;;;1.00;;
78581;SDS011;67878;46.242;5.974;2023-03-24T16:37:57;1.70;;;1.00;;
78581;SDS011;67878;46.242;5.974;2023-03-24T16:40:29;1.45;;;0.90;;
78581;SDS011;67878;46.242;5.974;2023-03-24T16:42:59;1.35;;;1.00;;
78581;SDS011;67878;46.242;5.974;2023-03-24T16:45:26;1.45;;;1.00;;
78581;SDS011;67878;46.242;5.974;2023-03-24T16:47:52;2.88;;;1.02;;
78581;SDS011;67878;46.242;5.974;2023-03-24T16:50:26;2.65;;;0.98;;
78581;SDS011;67878;46.242;5.974;2023-03-24T16:52:54;5.30;;;1.20;;
78581;SDS011;67878;46.242;5.974;2023-03-24T16:55:19;4.07;;;1.00;;
78581;SDS011;67878;46.242;5.974;2023-03-24T16:57:45;3.03;;;1.00;;
78581;SDS011;67878;46.242;5.974;2023-03-24T17:00:10;3.45;;;1.05;;
78581;SDS011;67878;46.242;5.974;2023-03-24T17:02:37;1.88;;;0.90;;
78581;SDS011;67878;46.242;5.974;2023-03-24T17:05:22;3.15;;;0.80;;
78581;SDS011;67878;46.242;5.974;2023-03-24T17:07:51;2.63;;;1.00;;
78581;SDS011;67878;46.242;5.974;2023-03-24T17:10:17;4.18;;;1.00;;
78581;SDS011;67878;46.242;5.974;2023-03-24T17:12:42;2.53;;;1.25;;
78581;SDS011;67878;46.242;5.974;2023-03-24T17:15:13;6.00;;;0.98;;
78581;SDS011;67878;46.242;5.974;2023-03-24T17:17:41;2.90;;;1.05;;
78581;SDS011;67878;46.242;5.974;2023-03-24T17:20:14;4.60;;;1.10;;
78581;SDS011;67878;46.242;5.974;2023-03-24T17:22:43;4.43;;;1.23;;
78581;SDS011;67878;46.242;5.974;2023-03-24T17:25:10;3.28;;;1.08;;
78581;SDS011;67878;46.242;5.974;2023-03-24T17:27:36;5.00;;;0.90;;
78581;SDS011;67878;46.242;5.974;2023-03-24T17:30:02;1.77;;;0.85;;
78581;SDS011;67878;46.242;5.974;2023-03-24T17:32:28;5.25;;;1.00;;
78581;SDS011;67878;46.242;5.974;2023-03-24T17:34:56;3.20;;;1.00;;
78581;SDS011;67878;46.242;5.974;2023-03-24T17:37:22;2.83;;;1.05;;
78581;SDS011;67878;46.242;5.974;2023-03-24T17:39:47;4.22;;;0.85;;
78581;SDS011;67878;46.242;5.974;2023-03-24T17:42:13;3.38;;;0.88;;
78581;SDS011;67878;46.242;5.974;2023-03-24T17:44:39;2.35;;;0.88;;
78581;SDS011;67878;46.242;5.974;2023-03-24T17:47:04;3.38;;;0.90;;
78581;SDS011;67878;46.242;5.974;2023-03-24T17:49:31;7.53;;;1.10;;
78581;SDS011;67878;46.242;5.974;2023-03-24T17:51:57;1.73;;;0.80;;
78581;SDS011;67878;46.242;5.974;2023-03-24T17:54:22;2.75;;;0.80;;
78581;SDS011;67878;46.242;5.974;2023-03-24T17:56:49;3.63;;;1.10;;
78581;SDS011;67878;46.242;5.974;2023-03-24T17:59:15;3.53;;;1.08;;
78581;SDS011;67878;46.242;5.974;2023-03-24T18:01:41;6.60;;;1.00;;
78581;SDS011;67878;46.242;5.974;2023-03-24T18:04:06;3.95;;;1.02;;
78581;SDS011;67878;46.242;5.974;2023-03-24T18:06:31;3.47;;;1.20;;
78581;SDS011;67878;46.242;5.974;2023-03-24T18:08:57;4.22;;;1.02;;
78581;SDS011;67878;46.242;5.974;2023-03-24T18:11:23;2.53;;;1.02;;
78581;SDS011;67878;46.242;5.974;2023-03-24T18:13:48;3.00;;;0.82;;
78581;SDS011;67878;46.242;5.974;2023-03-24T18:16:15;2.47;;;0.90;;
78581;SDS011;67878;46.242;5.974;2023-03-24T18:18:41;5.90;;;1.33;;
78581;SDS011;67878;46.242;5.974;2023-03-24T18:21:08;4.93;;;1.23;;